Time;durP1;ratioP1;P1;durP2;ratioP2;P2;SDS_P1;SDS_P2;PMS_P1;PMS_P2;Temp;Humidity;BMP_temperature;BMP_pressure;BME280_temperature;BME280_humidity;BME280_pressure;Samples;Min_cycle;Max_cycle;Signal;HPM_P1;HPM_P2
2021/10/28 00:14:20;;;;;;;19.92;10.15;;;;;;;-146.90;100.00;60518.97;5029393;28;20610;-74
2021/10/28 00:16:49;;;;;;;18.33;11.20;;;;;;;-146.90;100.00;60518.97;5028733;28;20120;-74
2021/10/28 00:19:14;;;;;;;19.63;10.77;;;;;;;-146.90;100.00;60518.97;5027182;28;20017;-74
2021/10/28 00:21:40;;;;;;;15.07;10.02;;;;;;;-146.90;100.00;60518.97;5027501;28;20383;-74
2021/10/28 00:24:08;;;;;;;15.80;10.23;;;;;;;-146.90;100.00;60518.97;5029705;28;20210;-75
2021/10/28 00:26:36;;;;;;;16.88;10.60;;;;;;;-146.90;100.00;60518.97;5030151;28;20039;-74
2021/10/28 00:29:04;;;;;;;18.92;10.40;;;;;;;-146.90;100.00;60518.97;5028269;28;20040;-74
2021/10/28 00:31:31;;;;;;;15.07;10.38;;;;;;;-146.90;100.00;60518.97;5028788;28;20395;-74
2021/10/28 00:33:57;;;;;;;19.55;11.43;;;;;;;-146.90;100.00;60518.97;5028926;28;20036;-75
2021/10/28 00:36:23;;;;;;;20.23;10.57;;;;;;;-146.90;100.00;60518.97;5028254;28;20021;-74
2021/10/28 00:38:49;;;;;;;19.92;10.88;;;;;;;-146.90;100.00;60518.97;5029486;28;20044;-74
2021/10/28 00:41:16;;;;;;;15.40;10.80;;;;;;;-146.90;100.00;60518.97;5027810;28;20124;-74
2021/10/28 00:43:50;;;;;;;18.40;11.35;;;;;;;-146.90;100.00;60518.97;5028469;28;20426;-75
2021/10/28 00:46:17;;;;;;;19.35;10.07;;;;;;;-146.90;100.00;60518.97;5027286;28;20040;-75
2021/10/28 00:48:44;;;;;;;19.98;10.63;;;;;;;-146.90;100.00;60518.97;5027268;28;20060;-74
2021/10/28 00:51:10;;;;;;;21.48;11.52;;;;;;;-146.90;100.00;60518.97;5029135;28;20029;-75
2021/10/28 00:53:35;;;;;;;18.55;10.93;;;;;;;-146.90;100.00;60518.97;5028552;28;20023;-75
2021/10/28 00:56:03;;;;;;;18.90;11.55;;;;;;;-146.90;100.00;60518.97;5028572;28;20111;-74
2021/10/28 00:58:33;;;;;;;18.73;11.63;;;;;;;-146.90;100.00;60518.97;5028331;28;20029;-74
2021/10/28 01:01:00;;;;;;;19.38;11.23;;;;;;;-146.90;100.00;60518.97;5027025;28;20041;-74
2021/10/28 01:03:26;;;;;;;18.48;11.40;;;;;;;-146.90;100.00;60518.97;5028056;28;20085;-74
2021/10/28 01:05:51;;;;;;;20.52;11.77;;;;;;;-146.90;100.00;60518.97;5028503;28;20096;-74
2021/10/28 01:08:17;;;;;;;25.40;12.40;;;;;;;-146.90;100.00;60518.97;5027516;28;20382;-74
2021/10/28 01:10:46;;;;;;;25.33;12.18;;;;;;;-146.90;100.00;60518.97;5028261;28;20464;-74
2021/10/28 01:13:13;;;;;;;20.45;11.25;;;;;;;-146.90;100.00;60518.97;5027149;28;20040;-74
2021/10/28 01:15:38;;;;;;;23.27;10.43;;;;;;;-146.90;100.00;60518.97;5026074;28;20095;-74
2021/10/28 01:18:09;;;;;;;21.15;11.27;;;;;;;-146.90;100.00;60518.97;5028619;28;20161;-75
2021/10/28 01:20:35;;;;;;;21.63;11.30;;;;;;;-146.90;100.00;60518.97;5028702;28;20468;-74
2021/10/28 01:23:00;;;;;;;21.27;11.10;;;;;;;-146.90;100.00;60518.97;5028568;28;20018;-74
2021/10/28 01:25:26;;;;;;;21.58;11.02;;;;;;;-146.90;100.00;60518.97;5027458;28;20033;-73
2021/10/28 01:27:51;;;;;;;20.05;11.00;;;;;;;-146.90;100.00;60518.97;5028350;28;20025;-76
2021/10/28 01:30:16;;;;;;;17.95;11.30;;;;;;;-146.90;100.00;60518.97;5030590;28;20035;-75
2021/10/28 01:32:42;;;;;;;20.35;10.27;;;;;;;-146.90;100.00;60518.97;5032816;28;20104;-75
2021/10/28 01:35:07;;;;;;;21.40;11.35;;;;;;;-146.90;100.00;60518.97;5032133;28;20124;-75
2021/10/28 01:37:33;;;;;;;18.40;9.93;;;;;;;-146.90;100.00;60518.97;5031556;28;20437;-75
2021/10/28 01:39:58;;;;;;;23.40;10.88;;;;;;;-146.90;100.00;60518.97;5026353;28;20067;-75
2021/10/28 01:42:23;;;;;;;19.40;11.07;;;;;;;-146.90;100.00;60518.97;5030647;28;20028;-76
2021/10/28 01:44:49;;;;;;;20.00;10.45;;;;;;;-146.90;100.00;60518.97;5031717;28;20033;-75
2021/10/28 01:47:16;;;;;;;17.92;9.98;;;;;;;-146.90;100.00;60518.97;5031548;28;20029;-75
2021/10/28 01:49:42;;;;;;;19.30;10.15;;;;;;;-146.90;100.00;60518.97;5032230;28;20025;-75
2021/10/28 01:52:10;;;;;;;18.45;9.95;;;;;;;-146.90;100.00;60518.97;5032654;28;20033;-75
2021/10/28 01:54:36;;;;;;;20.30;11.00;;;;;;;-146.90;100.00;60518.97;5031902;28;20049;-75
2021/10/28 01:57:01;;;;;;;21.27;10.35;;;;;;;-146.90;100.00;60518.97;5031892;28;20419;-75
2021/10/28 01:59:26;;;;;;;22.33;11.00;;;;;;;-146.90;100.00;60518.97;5032385;28;20503;-75
2021/10/28 02:01:52;;;;;;;21.42;11.05;;;;;;;-146.90;100.00;60518.97;5026802;28;20383;-75
2021/10/28 02:04:17;;;;;;;20.02;11.50;;;;;;;-146.90;100.00;60518.97;5032150;28;20047;-75
2021/10/28 02:06:42;;;;;;;31.08;12.18;;;;;;;-146.90;100.00;60518.97;5029890;28;20096;-75
2021/10/28 02:09:08;;;;;;;23.80;12.13;;;;;;;-146.90;100.00;60518.97;5033858;28;20029;-75
2021/10/28 02:11:33;;;;;;;24.23;11.77;;;;;;;-146.90;100.00;60518.97;5030269;28;20034;-76
2021/10/28 02:13:58;;;;;;;25.73;12.32;;;;;;;-146.90;100.00;60518.97;5031788;28;20017;-75
2021/10/28 02:16:32;;;;;;;23.13;11.95;;;;;;;-146.90;100.00;60518.97;5028439;28;20085;-75
2021/10/28 02:18:58;;;;;;;26.30;12.35;;;;;;;-146.90;100.00;60518.97;5030806;28;20025;-75
2021/10/28 02:21:24;;;;;;;24.17;11.73;;;;;;;-146.90;100.00;60518.97;5031095;28;20058;-75
2021/10/28 02:23:49;;;;;;;21.63;11.82;;;;;;;-146.90;100.00;60518.97;5032054;28;20507;-75
2021/10/28 02:26:15;;;;;;;24.50;11.65;;;;;;;-146.90;100.00;60518.97;5030385;28;20032;-75
2021/10/28 02:28:40;;;;;;;23.90;12.85;;;;;;;-146.90;100.00;60518.97;5031716;28;20041;-74
2021/10/28 02:31:06;;;;;;;24.23;13.65;;;;;;;-146.90;100.00;60518.97;5026045;28;20030;-75
2021/10/28 02:33:31;;;;;;;24.55;12.52;;;;;;;-146.90;100.00;60518.97;5031269;28;20065;-75
2021/10/28 02:35:56;;;;;;;28.95;14.13;;;;;;;-146.90;100.00;60518.97;5030703;28;20514;-75
2021/10/28 02:38:21;;;;;;;23.95;12.35;;;;;;;-146.90;100.00;60518.97;5031578;28;20112;-75
2021/10/28 02:40:47;;;;;;;26.25;13.25;;;;;;;-146.90;100.00;60518.97;5031777;28;20961;-74
2021/10/28 02:43:12;;;;;;;25.05;13.88;;;;;;;-146.90;100.00;60518.97;5031975;28;20057;-75
2021/10/28 02:45:38;;;;;;;24.17;13.18;;;;;;;-146.90;100.00;60518.97;5031273;28;20148;-75
2021/10/28 02:48:04;;;;;;;27.83;12.68;;;;;;;-146.90;100.00;60518.97;5030011;28;20460;-74
2021/10/28 02:50:29;;;;;;;26.67;13.82;;;;;;;-146.90;100.00;60518.97;5029797;28;20043;-74
2021/10/28 02:52:54;;;;;;;28.52;14.48;;;;;;;-146.90;100.00;60518.97;5030309;28;20033;-74
2021/10/28 02:55:20;;;;;;;30.20;14.82;;;;;;;-146.90;100.00;60518.97;5030826;28;20433;-75
2021/10/28 02:57:46;;;;;;;27.20;13.90;;;;;;;-146.90;100.00;60518.97;5034143;28;20026;-75
2021/10/28 03:00:12;;;;;;;31.95;15.68;;;;;;;-146.90;100.00;60518.97;5030995;28;20371;-75
2021/10/28 03:02:38;;;;;;;28.17;14.85;;;;;;;-146.90;100.00;60518.97;5031675;28;20029;-74
2021/10/28 03:05:04;;;;;;;29.08;14.65;;;;;;;-146.90;100.00;60518.97;5030359;28;20108;-74
2021/10/28 03:07:31;;;;;;;30.33;14.43;;;;;;;-146.90;100.00;60518.97;5030413;28;20034;-74
2021/10/28 03:09:57;;;;;;;26.75;14.50;;;;;;;-146.90;100.00;60518.97;5033600;28;20079;-74
2021/10/28 03:12:22;;;;;;;33.42;13.90;;;;;;;-146.90;100.00;60518.97;5030931;28;20109;-74
2021/10/28 03:15:00;;;;;;;25.80;13.40;;;;;;;-146.90;100.00;60518.97;5030523;28;20029;-74
2021/10/28 03:25:34;;;;;;;34.92;15.05;;;;;;;-146.90;100.00;60518.97;5030442;28;20037;-74
2021/10/28 03:25:42;;;;;;;28.73;15.05;;;;;;;-146.90;100.00;60518.97;5029288;28;20053;-74
2021/10/28 03:28:18;;;;;;;27.27;14.48;;;;;;;-146.90;100.00;60518.97;5029749;28;20022;-74
2021/10/28 03:30:45;;;;;;;26.83;14.45;;;;;;;-146.90;100.00;60518.97;5029659;28;20130;-74
2021/10/28 03:33:14;;;;;;;27.27;14.98;;;;;;;-146.90;100.00;60518.97;5029402;28;20033;-74
2021/10/28 03:35:41;;;;;;;30.05;14.90;;;;;;;-146.90;100.00;60518.97;5029234;28;20075;-74
2021/10/28 03:38:48;;;;;;;29.55;14.45;;;;;;;-146.90;100.00;60518.97;5029242;28;20173;-74
2021/10/28 03:46:28;;;;;;;22.92;14.40;;;;;;;-146.90;100.00;60518.97;5029508;28;20053;-74
2021/10/28 03:52:08;;;;;;;26.63;15.32;;;;;;;-146.90;100.00;60518.97;5026242;28;20352;-74
2021/10/28 04:21:36;;;;;;;25.58;14.80;;;;;;;-146.90;100.00;60518.97;5029388;28;20041;-74
2021/10/28 04:29:31;;;;;;;23.02;15.00;;;;;;;-146.90;100.00;60518.97;5017700;28;20044;-74
2021/10/28 04:31:56;;;;;;;25.13;13.63;;;;;;;-146.90;100.00;60518.97;5029012;28;20037;-75
2021/10/28 04:34:21;;;;;;;24.15;14.00;;;;;;;-146.90;100.00;60518.97;5027490;28;20037;-74
2021/10/28 04:36:47;;;;;;;20.08;14.15;;;;;;;-146.90;100.00;60518.97;5027047;28;20032;-74
2021/10/28 04:39:12;;;;;;;24.80;13.80;;;;;;;-146.90;100.00;60518.97;5028550;28;20028;-74
2021/10/28 04:41:38;;;;;;;22.08;13.02;;;;;;;-146.90;100.00;60518.97;5027699;28;20043;-74
2021/10/28 04:44:08;;;;;;;21.88;13.38;;;;;;;-146.90;100.00;60518.97;5028875;28;20048;-75
2021/10/28 04:46:33;;;;;;;23.63;13.90;;;;;;;-146.90;100.00;60518.97;5030206;28;20029;-74
2021/10/28 04:48:59;;;;;;;28.65;13.90;;;;;;;-146.90;100.00;60518.97;5028823;28;20025;-74
2021/10/28 04:51:24;;;;;;;20.95;12.07;;;;;;;-146.90;100.00;60518.97;5028119;28;20140;-74
2021/10/28 04:53:49;;;;;;;20.20;12.20;;;;;;;-146.90;100.00;60518.97;5030146;28;20479;-75
2021/10/28 04:56:15;;;;;;;22.10;13.40;;;;;;;-146.90;100.00;60518.97;5028098;28;20025;-75
2021/10/28 04:58:40;;;;;;;20.15;12.23;;;;;;;-146.90;100.00;60518.97;5028943;28;20025;-75
2021/10/28 05:01:06;;;;;;;21.00;12.43;;;;;;;-146.90;100.00;60518.97;5028411;28;20066;-75
2021/10/28 05:03:31;;;;;;;19.13;11.50;;;;;;;-146.90;100.00;60518.97;5028500;28;20120;-75
2021/10/28 05:05:56;;;;;;;17.92;12.20;;;;;;;-146.90;100.00;60518.97;5027542;28;20033;-75
2021/10/28 05:08:22;;;;;;;23.08;12.68;;;;;;;-146.90;100.00;60518.97;5028261;28;20428;-75
2021/10/28 05:10:47;;;;;;;21.05;12.70;;;;;;;-146.90;100.00;60518.97;5028209;28;20075;-76
2021/10/28 05:13:14;;;;;;;20.15;12.40;;;;;;;-146.90;100.00;60518.97;5027635;28;20060;-76
2021/10/28 05:15:51;;;;;;;22.42;13.18;;;;;;;-146.90;100.00;60518.97;5027303;28;20067;-74
2021/10/28 05:18:18;;;;;;;19.58;11.75;;;;;;;-146.90;100.00;60518.97;5028367;28;20021;-75
2021/10/28 05:20:44;;;;;;;21.05;11.50;;;;;;;-146.90;100.00;60518.97;5028275;28;20447;-74
2021/10/28 05:23:10;;;;;;;17.45;11.25;;;;;;;-146.90;100.00;60518.97;5028106;28;20061;-74
2021/10/28 05:25:36;;;;;;;19.85;10.98;;;;;;;-146.90;100.00;60518.97;5025899;28;20509;-74
2021/10/28 05:28:01;;;;;;;22.40;11.90;;;;;;;-146.90;100.00;60518.97;5026697;28;20034;-75
2021/10/28 05:30:28;;;;;;;19.63;11.13;;;;;;;-146.90;100.00;60518.97;5030381;28;20080;-74
2021/10/28 05:32:54;;;;;;;15.70;10.65;;;;;;;-146.90;100.00;60518.97;5026974;28;20112;-75
2021/10/28 05:35:20;;;;;;;16.58;10.55;;;;;;;-146.90;100.00;60518.97;5027560;28;20137;-76
2021/10/28 05:37:45;;;;;;;18.67;11.13;;;;;;;-146.90;100.00;60518.97;5029499;28;20029;-75
2021/10/28 05:40:11;;;;;;;15.98;10.88;;;;;;;-146.90;100.00;60518.97;5020438;28;20390;-75
2021/10/28 05:42:42;;;;;;;21.10;11.00;;;;;;;-146.90;100.00;60518.97;5028223;28;20467;-76
2021/10/28 05:45:08;;;;;;;15.15;10.40;;;;;;;-146.90;100.00;60518.97;5027830;28;20101;-74
2021/10/28 05:47:33;;;;;;;17.35;10.27;;;;;;;-146.90;100.00;60518.97;5027989;28;20125;-75
2021/10/28 05:49:59;;;;;;;16.88;10.30;;;;;;;-146.90;100.00;60518.97;5027340;28;20062;-74
2021/10/28 05:52:24;;;;;;;18.35;10.65;;;;;;;-146.90;100.00;60518.97;5027330;28;20493;-75
2021/10/28 05:54:49;;;;;;;16.95;10.10;;;;;;;-146.90;100.00;60518.97;5026787;28;20037;-74
2021/10/28 05:57:15;;;;;;;18.42;10.95;;;;;;;-146.90;100.00;60518.97;5027965;28;20094;-75
2021/10/28 05:59:40;;;;;;;16.67;9.95;;;;;;;-146.90;100.00;60518.97;5023711;28;20033;-74
2021/10/28 06:02:05;;;;;;;18.67;9.68;;;;;;;-146.90;100.00;60518.97;5025332;28;20075;-74
2021/10/28 06:04:31;;;;;;;19.13;9.95;;;;;;;-146.90;100.00;60518.97;5030374;28;20029;-74
2021/10/28 06:06:56;;;;;;;20.95;10.07;;;;;;;-146.90;100.00;60518.97;5027183;28;20439;-75
2021/10/28 06:09:22;;;;;;;19.23;9.50;;;;;;;-146.90;100.00;60518.97;5026998;28;20480;-75
2021/10/28 06:11:48;;;;;;;18.13;9.60;;;;;;;-146.90;100.00;60518.97;5026211;28;20096;-76
2021/10/28 06:14:17;;;;;;;18.95;10.32;;;;;;;-146.90;100.00;60518.97;5029829;28;20543;-74
2021/10/28 06:16:43;;;;;;;17.02;9.70;;;;;;;-146.90;100.00;60518.97;5029488;28;20017;-75
2021/10/28 06:19:08;;;;;;;15.93;9.43;;;;;;;-146.90;100.00;60518.97;5032256;28;20048;-74
2021/10/28 06:21:34;;;;;;;19.08;9.85;;;;;;;-146.90;100.00;60518.97;5032111;28;20033;-76
2021/10/28 06:24:00;;;;;;;14.07;9.95;;;;;;;-146.90;100.00;60518.97;5029094;28;20025;-72
2021/10/28 06:26:26;;;;;;;16.77;9.10;;;;;;;-146.90;100.00;60518.97;5029286;28;20033;-73
2021/10/28 06:28:53;;;;;;;18.73;9.88;;;;;;;-146.90;100.00;60518.97;5022765;28;20499;-73
2021/10/28 06:31:19;;;;;;;15.30;8.98;;;;;;;-146.90;100.00;60518.97;5029771;28;20380;-73
2021/10/28 06:34:00;;;;;;;17.17;9.70;;;;;;;-146.90;100.00;60518.97;5030648;28;20521;-73
2021/10/28 06:36:26;;;;;;;17.00;9.45;;;;;;;-146.90;100.00;60518.97;5031114;28;20037;-72
2021/10/28 06:38:51;;;;;;;16.83;11.80;;;;;;;-146.90;100.00;60518.97;5030732;28;20075;-73
2021/10/28 06:41:17;;;;;;;17.10;9.95;;;;;;;-146.90;100.00;60518.97;5029343;28;20057;-72
2021/10/28 06:43:42;;;;;;;16.42;9.30;;;;;;;-146.90;100.00;60518.97;5029583;28;20111;-73
2021/10/28 06:46:07;;;;;;;16.30;9.25;;;;;;;-146.90;100.00;60518.97;5030926;28;20017;-73
2021/10/28 06:48:33;;;;;;;19.15;10.50;;;;;;;-146.90;100.00;60518.97;5029914;28;20026;-73
2021/10/28 06:51:00;;;;;;;16.17;8.75;;;;;;;-146.90;100.00;60518.97;5031704;28;20094;-73
2021/10/28 06:53:29;;;;;;;18.38;9.57;;;;;;;-146.90;100.00;60518.97;5022695;28;20033;-73
2021/10/28 07:04:07;;;;;;;17.77;8.88;;;;;;;-146.90;100.00;60518.97;5030976;28;20044;-73
2021/10/28 07:06:39;;;;;;;17.40;9.20;;;;;;;-146.90;100.00;60518.97;5029636;28;20386;-75
2021/10/28 07:09:17;;;;;;;15.52;9.48;;;;;;;-146.90;100.00;60518.97;5031503;28;20128;-74
2021/10/28 07:11:42;;;;;;;15.18;8.55;;;;;;;-146.90;100.00;60518.97;5022452;28;20037;-74
2021/10/28 07:14:09;;;;;;;14.98;7.93;;;;;;;-146.90;100.00;60518.97;5030661;28;20375;-74
2021/10/28 07:16:42;;;;;;;14.25;8.80;;;;;;;-146.90;100.00;60518.97;5028634;28;20041;-74
2021/10/28 07:19:31;;;;;;;14.75;8.13;;;;;;;-146.90;100.00;60518.97;5030590;28;20025;-74
2021/10/28 07:32:51;;;;;;;15.02;7.57;;;;;;;-146.90;100.00;60518.97;5030751;28;20076;-74
2021/10/28 08:23:39;;;;;;;12.63;6.88;;;;;;;-146.90;100.00;60518.97;5009481;28;20124;-74
2021/10/28 08:28:54;;;;;;;11.40;6.38;;;;;;;-146.90;100.00;60518.97;5027037;28;20028;-75
2021/10/28 08:31:20;;;;;;;11.38;6.40;;;;;;;-146.90;100.00;60518.97;5029087;28;20025;-74
2021/10/28 08:33:49;;;;;;;11.20;6.55;;;;;;;-146.90;100.00;60518.97;5029498;28;20117;-74
2021/10/28 08:36:23;;;;;;;10.23;6.53;;;;;;;-146.90;100.00;60518.97;5028471;28;20507;-75
2021/10/28 08:38:49;;;;;;;16.27;6.85;;;;;;;-146.90;100.00;60518.97;5028334;28;20035;-73
2021/10/28 08:41:14;;;;;;;12.45;6.38;;;;;;;-146.90;100.00;60518.97;5028320;28;20029;-74
2021/10/28 08:43:44;;;;;;;10.15;6.03;;;;;;;-146.90;100.00;60518.97;5027188;28;20025;-74
2021/10/28 08:46:11;;;;;;;10.73;6.40;;;;;;;-146.90;100.00;60518.97;5026758;28;20021;-75
2021/10/28 08:48:40;;;;;;;14.13;6.65;;;;;;;-146.90;100.00;60518.97;5029024;28;20061;-74
2021/10/28 08:51:20;;;;;;;11.18;6.18;;;;;;;-146.90;100.00;60518.97;5029119;28;20026;-74
2021/10/28 08:57:13;;;;;;;;;;;;;;;-146.90;100.00;60518.97;5027274;28;20057;-74
2021/10/28 09:51:06;;;;;;;11.70;6.07;;;;;;;-146.90;100.00;60518.97;5028237;28;20041;-72
2021/10/28 09:53:43;;;;;;;10.85;5.90;;;;;;;-146.90;100.00;60518.97;5020581;28;20021;-76
2021/10/28 09:59:06;;;;;;;9.68;5.82;;;;;;;-146.90;100.00;60518.97;5032777;28;20514;-75
2021/10/28 10:01:38;;;;;;;15.18;6.07;;;;;;;-146.90;100.00;60518.97;5031367;28;20040;-76
2021/10/28 10:04:06;;;;;;;13.73;6.18;;;;;;;-146.90;100.00;60518.97;5025247;28;20033;-76
2021/10/28 10:06:37;;;;;;;10.82;6.28;;;;;;;-146.90;100.00;60518.97;5020626;28;20041;-77
2021/10/28 10:09:04;;;;;;;12.50;6.45;;;;;;;-146.90;100.00;60518.97;5020273;28;20109;-76
2021/10/28 10:11:29;;;;;;;10.00;5.97;;;;;;;-146.90;100.00;60518.97;5019194;28;20034;-75
2021/10/28 10:13:55;;;;;;;13.77;6.30;;;;;;;-146.90;100.00;60518.97;5032866;28;20022;-75
2021/10/28 10:16:20;;;;;;;9.93;6.38;;;;;;;-146.90;100.00;60518.97;5028893;28;20036;-75
2021/10/28 10:18:48;;;;;;;9.85;6.22;;;;;;;-146.90;100.00;60518.97;5031002;28;20037;-74
2021/10/28 10:21:31;;;;;;;9.32;5.68;;;;;;;-146.90;100.00;60518.97;5021262;28;20041;-74
2021/10/28 11:22:56;;;;;;;8.68;4.75;;;;;;;-146.90;100.00;60518.97;5036617;28;20033;-75
2021/10/28 12:44:01;;;;;;;10.30;5.80;;;;;;;-146.90;100.00;60518.97;5028263;28;20041;-73
2021/10/28 13:28:13;;;;;;;11.53;5.27;;;;;;;-146.90;100.00;60518.97;5015924;28;19924;-73
2021/10/28 13:35:01;;;;;;;12.13;5.20;;;;;;;-146.90;100.00;60518.97;5027104;28;20175;-72
2021/10/28 14:00:18;;;;;;;8.45;4.97;;;;;;;-146.90;100.00;60518.97;5011709;28;20103;-74
2021/10/28 14:22:32;;;;;;;9.07;4.65;;;;;;;-146.90;100.00;60518.97;5013198;28;20097;-73
2021/10/28 14:25:31;;;;;;;13.07;5.22;;;;;;;-146.90;100.00;60518.97;5021055;28;20048;-72
2021/10/28 14:33:49;;;;;;;14.73;5.10;;;;;;;-146.90;100.00;60518.97;5031953;28;20118;-74
2021/10/28 15:28:13;;;;;;;10.68;4.50;;;;;;;-146.90;100.00;60518.97;5020278;28;20037;-75
2021/10/28 15:36:13;;;;;;;6.93;4.30;;;;;;;-146.90;100.00;60518.97;5027175;28;20048;-73
2021/10/28 15:54:24;;;;;;;8.18;4.05;;;;;;;-146.90;100.00;60518.97;5027582;28;20080;-76
2021/10/28 16:23:53;;;;;;;13.90;4.82;;;;;;;-146.90;100.00;60518.97;5028405;28;20497;-77
2021/10/28 16:26:18;;;;;;;7.13;3.95;;;;;;;-146.90;100.00;60518.97;5027949;28;20021;-74
2021/10/28 16:28:43;;;;;;;7.38;4.10;;;;;;;-146.90;100.00;60518.97;5026532;28;20067;-75
2021/10/28 16:31:09;;;;;;;9.68;3.95;;;;;;;-146.90;100.00;60518.97;5021731;28;20034;-74
2021/10/28 16:33:34;;;;;;;10.43;4.20;;;;;;;-146.90;100.00;60518.97;5027506;28;20037;-74
2021/10/28 16:35:59;;;;;;;13.85;4.60;;;;;;;-146.90;100.00;60518.97;5014872;28;20046;-75
2021/10/28 16:38:25;;;;;;;12.27;4.78;;;;;;;-146.90;100.00;60518.97;5019233;28;20036;-75
2021/10/28 16:40:52;;;;;;;7.90;4.18;;;;;;;-146.90;100.00;60518.97;5027101;28;20156;-75
2021/10/28 16:43:18;;;;;;;8.30;4.57;;;;;;;-146.90;100.00;60518.97;5028634;28;20067;-74
2021/10/28 16:45:47;;;;;;;9.15;4.57;;;;;;;-146.90;100.00;60518.97;5026588;28;20485;-73
2021/10/28 16:48:14;;;;;;;13.23;4.80;;;;;;;-146.90;100.00;60518.97;5029043;28;20025;-74
2021/10/28 16:50:39;;;;;;;14.75;5.07;;;;;;;-146.90;100.00;60518.97;5026574;28;20475;-75
2021/10/28 16:53:05;;;;;;;10.27;4.88;;;;;;;-146.90;100.00;60518.97;5018176;28;20116;-75
2021/10/28 16:55:31;;;;;;;10.48;4.85;;;;;;;-146.90;100.00;60518.97;5017476;28;20372;-75
2021/10/28 16:57:57;;;;;;;14.57;5.20;;;;;;;-146.90;100.00;60518.97;5024973;28;20029;-76
2021/10/28 17:00:23;;;;;;;10.70;5.15;;;;;;;-146.90;100.00;60518.97;5025575;28;20052;-76
2021/10/28 17:02:48;;;;;;;12.25;5.10;;;;;;;-146.90;100.00;60518.97;5020607;28;20021;-76
2021/10/28 17:05:15;;;;;;;12.68;5.25;;;;;;;-146.90;100.00;60518.97;5015046;28;20034;-75
2021/10/28 17:07:41;;;;;;;10.98;4.82;;;;;;;-146.90;100.00;60518.97;5027640;28;20049;-77
2021/10/28 17:10:06;;;;;;;9.25;5.28;;;;;;;-146.90;100.00;60518.97;5027006;28;20052;-76
2021/10/28 17:12:33;;;;;;;17.27;5.70;;;;;;;-146.90;100.00;60518.97;5030600;28;20128;-77
2021/10/28 17:14:58;;;;;;;11.00;5.50;;;;;;;-146.90;100.00;60518.97;5020788;28;20117;-77
2021/10/28 17:17:24;;;;;;;14.38;5.55;;;;;;;-146.90;100.00;60518.97;5011815;28;20122;-76
2021/10/28 17:19:50;;;;;;;13.20;5.10;;;;;;;-146.90;100.00;60518.97;5026536;28;20021;-77
2021/10/28 17:22:15;;;;;;;8.43;4.93;;;;;;;-146.90;100.00;60518.97;5027873;28;20071;-79
2021/10/28 17:24:49;;;;;;;8.73;4.75;;;;;;;-146.90;100.00;60518.97;5026673;28;20036;-77
2021/10/28 17:27:14;;;;;;;10.32;4.88;;;;;;;-146.90;100.00;60518.97;5023874;28;20112;-75
2021/10/28 17:29:41;;;;;;;14.98;5.50;;;;;;;-146.90;100.00;60518.97;5022800;28;20033;-77
2021/10/28 17:32:08;;;;;;;8.13;4.82;;;;;;;-146.90;100.00;60518.97;5027204;28;20079;-76
2021/10/28 17:34:34;;;;;;;13.43;5.45;;;;;;;-146.90;100.00;60518.97;5029155;28;20029;-76
2021/10/28 17:37:01;;;;;;;7.47;4.93;;;;;;;-146.90;100.00;60518.97;5028108;28;20033;-75
2021/10/28 17:39:27;;;;;;;20.33;5.50;;;;;;;-146.90;100.00;60518.97;5027497;28;20083;-77
2021/10/28 17:41:53;;;;;;;9.32;4.97;;;;;;;-146.90;100.00;60518.97;5027613;28;20064;-77
2021/10/28 17:44:22;;;;;;;12.48;4.72;;;;;;;-146.90;100.00;60518.97;5026001;28;20040;-75
2021/10/28 17:46:47;;;;;;;9.52;5.47;;;;;;;-146.90;100.00;60518.97;5027928;28;20045;-75
2021/10/28 17:49:12;;;;;;;10.32;5.18;;;;;;;-146.90;100.00;60518.97;5027274;28;20045;-77
2021/10/28 17:51:38;;;;;;;19.55;5.28;;;;;;;-146.90;100.00;60518.97;5028736;28;20055;-75
2021/10/28 17:54:09;;;;;;;7.75;4.53;;;;;;;-146.90;100.00;60518.97;5027356;28;20094;-75
2021/10/28 17:56:36;;;;;;;9.50;5.10;;;;;;;-146.90;100.00;60518.97;5027881;28;20030;-75
2021/10/28 17:59:04;;;;;;;10.25;4.97;;;;;;;-146.90;100.00;60518.97;5027235;28;20051;-77
2021/10/28 18:01:29;;;;;;;7.50;4.45;;;;;;;-146.90;100.00;60518.97;5023742;28;20125;-77
2021/10/28 18:03:58;;;;;;;11.95;4.93;;;;;;;-146.90;100.00;60518.97;5026763;28;20487;-78
2021/10/28 18:06:24;;;;;;;14.05;4.90;;;;;;;-146.90;100.00;60518.97;5027472;28;20062;-78
2021/10/28 18:08:50;;;;;;;9.35;4.80;;;;;;;-146.90;100.00;60518.97;5032348;28;20158;-77
2021/10/28 18:11:17;;;;;;;14.93;4.85;;;;;;;-146.90;100.00;60518.97;5026244;28;20026;-77
2021/10/28 18:13:42;;;;;;;13.95;5.25;;;;;;;-146.90;100.00;60518.97;5029862;28;20049;-77
2021/10/28 18:16:07;;;;;;;9.85;5.22;;;;;;;-146.90;100.00;60518.97;5029030;28;20022;-77
2021/10/28 18:18:35;;;;;;;9.80;4.68;;;;;;;-146.90;100.00;60518.97;5030372;28;20030;-77
2021/10/28 18:21:02;;;;;;;11.05;4.60;;;;;;;-146.90;100.00;60518.97;5032392;28;20029;-77
2021/10/28 18:23:29;;;;;;;13.23;5.15;;;;;;;-146.90;100.00;60518.97;5030096;28;20157;-76
2021/10/28 18:25:55;;;;;;;10.70;5.88;;;;;;;-146.90;100.00;60518.97;5030633;28;20106;-76
2021/10/28 18:28:20;;;;;;;11.65;5.20;;;;;;;-146.90;100.00;60518.97;5030144;28;20547;-75
2021/10/28 18:30:45;;;;;;;9.57;5.32;;;;;;;-146.90;100.00;60518.97;5030374;28;20048;-77
2021/10/28 18:33:11;;;;;;;9.65;5.45;;;;;;;-146.90;100.00;60518.97;5031629;28;20118;-77
2021/10/28 18:35:38;;;;;;;9.07;4.95;;;;;;;-146.90;100.00;60518.97;5030414;28;20025;-81
2021/10/28 18:38:07;;;;;;;12.00;5.50;;;;;;;-146.90;100.00;60518.97;5028293;28;20029;-77
2021/10/28 18:40:33;;;;;;;10.30;5.40;;;;;;;-146.90;100.00;60518.97;5021835;28;20060;-78
2021/10/28 18:42:58;;;;;;;11.65;5.40;;;;;;;-146.90;100.00;60518.97;5030810;28;20085;-77
2021/10/28 18:45:23;;;;;;;15.30;5.43;;;;;;;-146.90;100.00;60518.97;5029111;28;20557;-77
2021/10/28 18:47:51;;;;;;;9.60;5.03;;;;;;;-146.90;100.00;60518.97;5025319;28;20033;-76
2021/10/28 18:50:16;;;;;;;8.82;5.35;;;;;;;-146.90;100.00;60518.97;5030802;28;20033;-75
2021/10/28 18:52:42;;;;;;;9.93;5.47;;;;;;;-146.90;100.00;60518.97;5029604;28;20382;-78
2021/10/28 18:55:08;;;;;;;12.48;5.15;;;;;;;-146.90;100.00;60518.97;5031214;28;20077;-75
2021/10/28 18:57:33;;;;;;;11.55;5.35;;;;;;;-146.90;100.00;60518.97;5030896;28;20504;-78
2021/10/28 18:59:59;;;;;;;14.05;5.68;;;;;;;-146.90;100.00;60518.97;5027965;28;20048;-78
2021/10/28 19:02:27;;;;;;;8.82;5.65;;;;;;;-146.90;100.00;60518.97;5032338;28;20053;-77
2021/10/28 19:04:52;;;;;;;12.80;5.38;;;;;;;-146.90;100.00;60518.97;5024284;28;20018;-77
2021/10/28 19:07:19;;;;;;;8.55;5.38;;;;;;;-146.90;100.00;60518.97;5017027;28;20088;-78
2021/10/28 19:09:45;;;;;;;12.10;4.85;;;;;;;-146.90;100.00;60518.97;5029726;28;20029;-78
2021/10/28 19:12:11;;;;;;;9.02;5.13;;;;;;;-146.90;100.00;60518.97;5018857;28;20072;-78
2021/10/28 19:14:42;;;;;;;10.85;5.75;;;;;;;-146.90;100.00;60518.97;5032414;28;20029;-76
2021/10/28 19:17:08;;;;;;;11.13;5.30;;;;;;;-146.90;100.00;60518.97;5030560;28;20060;-74
2021/10/28 19:19:34;;;;;;;8.65;5.20;;;;;;;-146.90;100.00;60518.97;5030569;28;20053;-74
2021/10/28 19:21:59;;;;;;;12.73;5.82;;;;;;;-146.90;100.00;60518.97;5029540;28;20108;-75
2021/10/28 19:24:25;;;;;;;11.27;5.85;;;;;;;-146.90;100.00;60518.97;5028575;28;20048;-74
2021/10/28 19:26:50;;;;;;;10.73;5.75;;;;;;;-146.90;100.00;60518.97;5029321;28;20542;-76
2021/10/28 19:29:16;;;;;;;11.32;6.28;;;;;;;-146.90;100.00;60518.97;5029892;28;20044;-76
2021/10/28 19:31:52;;;;;;;11.60;5.40;;;;;;;-146.90;100.00;60518.97;5030604;28;20053;-76
2021/10/28 19:34:17;;;;;;;10.93;6.10;;;;;;;-146.90;100.00;60518.97;5029242;28;20033;-75
2021/10/28 19:39:51;;;;;;;14.50;5.95;;;;;;;-146.90;100.00;60518.97;4999206;28;20661;-76
2021/10/28 19:47:40;;;;;;;13.70;6.10;;;;;;;-146.90;100.00;60518.97;5030166;28;20152;-76